sensor_id;sensor_type;location;lat;lon;timestamp;P1;durP1;ratioP1;P2;durP2;ratioP2
51525;SDS011;37611;51.794;21.590;2022-12-07T00:01:07;17.00;;;14.60;;
51525;SDS011;37611;51.794;21.590;2022-12-07T00:05:13;15.60;;;13.60;;
51525;SDS011;37611;51.794;21.590;2022-12-07T00:09:16;17.50;;;13.50;;
51525;SDS011;37611;51.794;21.590;2022-12-07T00:13:19;18.40;;;14.30;;
51525;SDS011;37611;51.794;21.590;2022-12-07T00:17:20;16.40;;;14.50;;
51525;SDS011;37611;51.794;21.590;2022-12-07T00:21:26;17.40;;;14.10;;
51525;SDS011;37611;51.794;21.590;2022-12-07T00:25:30;17.50;;;13.30;;
51525;SDS011;37611;51.794;21.590;2022-12-07T00:29:32;16.80;;;14.70;;
51525;SDS011;37611;51.794;21.590;2022-12-07T00:33:34;16.50;;;13.00;;
51525;SDS011;37611;51.794;21.590;2022-12-07T00:37:36;19.30;;;14.30;;
51525;SDS011;37611;51.794;21.590;2022-12-07T00:41:38;19.90;;;15.00;;
51525;SDS011;37611;51.794;21.590;2022-12-07T00:45:40;16.30;;;13.50;;
51525;SDS011;37611;51.794;21.590;2022-12-07T00:49:42;19.80;;;14.40;;
51525;SDS011;37611;51.794;21.590;2022-12-07T00:53:44;19.20;;;15.30;;
51525;SDS011;37611;51.794;21.590;2022-12-07T00:57:45;20.60;;;14.40;;
51525;SDS011;37611;51.794;21.590;2022-12-07T01:01:47;18.00;;;13.30;;
51525;SDS011;37611;51.794;21.590;2022-12-07T01:05:53;17.80;;;14.10;;
51525;SDS011;37611;51.794;21.590;2022-12-07T01:09:56;17.20;;;13.50;;
51525;SDS011;37611;51.794;21.590;2022-12-07T01:13:58;17.90;;;15.00;;
51525;SDS011;37611;51.794;21.590;2022-12-07T01:18:02;18.50;;;13.90;;
51525;SDS011;37611;51.794;21.590;2022-12-07T01:22:04;16.30;;;11.90;;
51525;SDS011;37611;51.794;21.590;2022-12-07T01:26:06;15.80;;;12.80;;
51525;SDS011;37611;51.794;21.590;2022-12-07T01:30:11;19.40;;;14.20;;
51525;SDS011;37611;51.794;21.590;2022-12-07T01:34:14;17.80;;;12.40;;
51525;SDS011;37611;51.794;21.590;2022-12-07T01:38:16;17.00;;;13.50;;
51525;SDS011;37611;51.794;21.590;2022-12-07T01:42:18;14.90;;;11.80;;
51525;SDS011;37611;51.794;21.590;2022-12-07T01:46:20;16.50;;;12.10;;
51525;SDS011;37611;51.794;21.590;2022-12-07T01:50:23;13.60;;;10.30;;
51525;SDS011;37611;51.794;21.590;2022-12-07T01:54:28;15.70;;;11.00;;
51525;SDS011;37611;51.794;21.590;2022-12-07T01:58:29;18.90;;;12.20;;
51525;SDS011;37611;51.794;21.590;2022-12-07T02:02:37;15.70;;;10.90;;
51525;SDS011;37611;51.794;21.590;2022-12-07T02:06:44;11.10;;;8.20;;
51525;SDS011;37611;51.794;21.590;2022-12-07T02:10:48;11.90;;;8.70;;
51525;SDS011;37611;51.794;21.590;2022-12-07T02:14:50;9.60;;;7.40;;
51525;SDS011;37611;51.794;21.590;2022-12-07T02:19:04;9.80;;;7.70;;
51525;SDS011;37611;51.794;21.590;2022-12-07T02:31:59;8.40;;;6.00;;
51525;SDS011;37611;51.794;21.590;2022-12-07T02:36:04;9.40;;;5.80;;
51525;SDS011;37611;51.794;21.590;2022-12-07T02:40:15;7.30;;;5.50;;
51525;SDS011;37611;51.794;21.590;2022-12-07T02:44:23;8.20;;;6.10;;
51525;SDS011;37611;51.794;21.590;2022-12-07T02:48:27;6.50;;;5.50;;
51525;SDS011;37611;51.794;21.590;2022-12-07T02:52:30;8.70;;;6.60;;
51525;SDS011;37611;51.794;21.590;2022-12-07T03:00:55;8.00;;;6.10;;
51525;SDS011;37611;51.794;21.590;2022-12-07T03:05:31;7.10;;;5.90;;
51525;SDS011;37611;51.794;21.590;2022-12-07T03:09:58;7.90;;;5.50;;
51525;SDS011;37611;51.794;21.590;2022-12-07T03:14:25;7.40;;;6.70;;
51525;SDS011;37611;51.794;21.590;2022-12-07T03:18:37;8.00;;;6.70;;
51525;SDS011;37611;51.794;21.590;2022-12-07T03:22:47;9.90;;;7.80;;
51525;SDS011;37611;51.794;21.590;2022-12-07T03:31:19;8.70;;;7.10;;
51525;SDS011;37611;51.794;21.590;2022-12-07T03:35:30;8.60;;;7.00;;
51525;SDS011;37611;51.794;21.590;2022-12-07T03:39:35;10.10;;;8.20;;
51525;SDS011;37611;51.794;21.590;2022-12-07T03:52:51;9.20;;;7.40;;
51525;SDS011;37611;51.794;21.590;2022-12-07T03:56:25;10.50;;;8.50;;
51525;SDS011;37611;51.794;21.590;2022-12-07T04:00:29;12.10;;;8.70;;
51525;SDS011;37611;51.794;21.590;2022-12-07T04:04:31;11.60;;;9.30;;
51525;SDS011;37611;51.794;21.590;2022-12-07T04:08:33;9.70;;;8.60;;
51525;SDS011;37611;51.794;21.590;2022-12-07T04:12:35;12.10;;;9.30;;
51525;SDS011;37611;51.794;21.590;2022-12-07T04:16:37;10.40;;;9.10;;
51525;SDS011;37611;51.794;21.590;2022-12-07T04:20:39;10.10;;;7.90;;
51525;SDS011;37611;51.794;21.590;2022-12-07T04:24:41;10.40;;;8.60;;
51525;SDS011;37611;51.794;21.590;2022-12-07T04:28:42;10.00;;;8.20;;
51525;SDS011;37611;51.794;21.590;2022-12-07T04:32:44;13.20;;;9.80;;
51525;SDS011;37611;51.794;21.590;2022-12-07T04:36:46;11.50;;;8.90;;
51525;SDS011;37611;51.794;21.590;2022-12-07T04:40:48;12.90;;;10.40;;
51525;SDS011;37611;51.794;21.590;2022-12-07T04:44:50;11.50;;;9.80;;
51525;SDS011;37611;51.794;21.590;2022-12-07T04:48:52;13.70;;;12.20;;
51525;SDS011;37611;51.794;21.590;2022-12-07T04:52:55;12.90;;;10.20;;
51525;SDS011;37611;51.794;21.590;2022-12-07T04:56:56;12.20;;;9.50;;
51525;SDS011;37611;51.794;21.590;2022-12-07T05:00:58;10.90;;;9.00;;
51525;SDS011;37611;51.794;21.590;2022-12-07T05:05:00;12.40;;;9.60;;
51525;SDS011;37611;51.794;21.590;2022-12-07T05:09:02;14.40;;;11.00;;
51525;SDS011;37611;51.794;21.590;2022-12-07T05:13:04;17.00;;;12.20;;
51525;SDS011;37611;51.794;21.590;2022-12-07T05:17:06;11.80;;;10.50;;
51525;SDS011;37611;51.794;21.590;2022-12-07T05:21:08;12.80;;;11.00;;
51525;SDS011;37611;51.794;21.590;2022-12-07T05:25:10;13.10;;;11.40;;
51525;SDS011;37611;51.794;21.590;2022-12-07T05:29:13;13.90;;;12.20;;
51525;SDS011;37611;51.794;21.590;2022-12-07T05:33:16;13.50;;;10.30;;
51525;SDS011;37611;51.794;21.590;2022-12-07T05:37:18;15.20;;;12.20;;
51525;SDS011;37611;51.794;21.590;2022-12-07T05:41:19;19.40;;;13.40;;
51525;SDS011;37611;51.794;21.590;2022-12-07T05:45:40;18.30;;;14.50;;
51525;SDS011;37611;51.794;21.590;2022-12-07T05:49:41;16.00;;;13.20;;
51525;SDS011;37611;51.794;21.590;2022-12-07T05:53:44;14.50;;;13.00;;
51525;SDS011;37611;51.794;21.590;2022-12-07T05:57:46;14.20;;;12.60;;
51525;SDS011;37611;51.794;21.590;2022-12-07T06:02:09;12.70;;;10.90;;
51525;SDS011;37611;51.794;21.590;2022-12-07T06:06:12;11.90;;;10.30;;
51525;SDS011;37611;51.794;21.590;2022-12-07T06:10:15;10.40;;;9.10;;
51525;SDS011;37611;51.794;21.590;2022-12-07T06:14:16;12.00;;;8.90;;
51525;SDS011;37611;51.794;21.590;2022-12-07T06:18:18;10.80;;;9.40;;
51525;SDS011;37611;51.794;21.590;2022-12-07T06:22:20;10.80;;;9.20;;
51525;SDS011;37611;51.794;21.590;2022-12-07T06:26:22;11.90;;;10.00;;
51525;SDS011;37611;51.794;21.590;2022-12-07T06:30:24;11.20;;;9.50;;
51525;SDS011;37611;51.794;21.590;2022-12-07T06:34:26;12.70;;;10.20;;
51525;SDS011;37611;51.794;21.590;2022-12-07T06:38:28;11.30;;;9.50;;
51525;SDS011;37611;51.794;21.590;2022-12-07T06:42:30;10.80;;;9.50;;
51525;SDS011;37611;51.794;21.590;2022-12-07T06:46:32;10.30;;;9.20;;
51525;SDS011;37611;51.794;21.590;2022-12-07T06:50:36;10.30;;;8.90;;
51525;SDS011;37611;51.794;21.590;2022-12-07T06:54:38;10.50;;;8.90;;
51525;SDS011;37611;51.794;21.590;2022-12-07T06:58:40;10.80;;;9.70;;
51525;SDS011;37611;51.794;21.590;2022-12-07T07:02:42;12.00;;;10.20;;
51525;SDS011;37611;51.794;21.590;2022-12-07T07:06:44;10.90;;;9.30;;
51525;SDS011;37611;51.794;21.590;2022-12-07T07:10:46;12.50;;;10.40;;
51525;SDS011;37611;51.794;21.590;2022-12-07T07:14:47;12.20;;;9.30;;
51525;SDS011;37611;51.794;21.590;2022-12-07T07:18:49;12.40;;;10.30;;
51525;SDS011;37611;51.794;21.590;2022-12-07T07:22:53;10.60;;;9.00;;
51525;SDS011;37611;51.794;21.590;2022-12-07T07:26:55;10.90;;;8.70;;
51525;SDS011;37611;51.794;21.590;2022-12-07T07:30:57;9.70;;;7.80;;
51525;SDS011;37611;51.794;21.590;2022-12-07T07:34:59;10.70;;;9.00;;
51525;SDS011;37611;51.794;21.590;2022-12-07T07:39:01;10.80;;;9.70;;
51525;SDS011;37611;51.794;21.590;2022-12-07T07:43:03;11.90;;;10.50;;
51525;SDS011;37611;51.794;21.590;2022-12-07T07:47:05;15.10;;;12.30;;
51525;SDS011;37611;51.794;21.590;2022-12-07T07:51:07;21.70;;;15.50;;
51525;SDS011;37611;51.794;21.590;2022-12-07T07:55:10;25.00;;;18.60;;
51525;SDS011;37611;51.794;21.590;2022-12-07T07:59:12;11.50;;;9.10;;
51525;SDS011;37611;51.794;21.590;2022-12-07T08:03:13;13.70;;;10.80;;
51525;SDS011;37611;51.794;21.590;2022-12-07T08:07:15;9.40;;;8.10;;
51525;SDS011;37611;51.794;21.590;2022-12-07T08:11:17;8.00;;;6.90;;
51525;SDS011;37611;51.794;21.590;2022-12-07T08:15:19;7.80;;;7.00;;
51525;SDS011;37611;51.794;21.590;2022-12-07T08:19:21;9.40;;;8.40;;
51525;SDS011;37611;51.794;21.590;2022-12-07T08:23:22;9.50;;;7.50;;
51525;SDS011;37611;51.794;21.590;2022-12-07T08:27:24;24.00;;;21.70;;
51525;SDS011;37611;51.794;21.590;2022-12-07T08:31:28;9.80;;;8.50;;
51525;SDS011;37611;51.794;21.590;2022-12-07T08:35:32;12.20;;;10.90;;
51525;SDS011;37611;51.794;21.590;2022-12-07T08:39:35;8.80;;;6.90;;
51525;SDS011;37611;51.794;21.590;2022-12-07T08:43:37;7.70;;;6.20;;
51525;SDS011;37611;51.794;21.590;2022-12-07T08:47:40;10.50;;;8.50;;
51525;SDS011;37611;51.794;21.590;2022-12-07T08:51:46;8.40;;;7.50;;
51525;SDS011;37611;51.794;21.590;2022-12-07T08:55:48;12.20;;;11.00;;
51525;SDS011;37611;51.794;21.590;2022-12-07T08:59:50;9.70;;;6.70;;
51525;SDS011;37611;51.794;21.590;2022-12-07T09:03:52;8.20;;;7.20;;
51525;SDS011;37611;51.794;21.590;2022-12-07T09:07:55;14.20;;;12.00;;
51525;SDS011;37611;51.794;21.590;2022-12-07T09:12:01;10.00;;;7.40;;
51525;SDS011;37611;51.794;21.590;2022-12-07T09:16:02;9.40;;;8.40;;
51525;SDS011;37611;51.794;21.590;2022-12-07T09:20:05;15.20;;;13.60;;
51525;SDS011;37611;51.794;21.590;2022-12-07T09:24:08;14.20;;;12.70;;
51525;SDS011;37611;51.794;21.590;2022-12-07T09:28:10;9.20;;;6.80;;
51525;SDS011;37611;51.794;21.590;2022-12-07T09:32:12;10.30;;;8.60;;
51525;SDS011;37611;51.794;21.590;2022-12-07T09:36:14;17.00;;;13.40;;
51525;SDS011;37611;51.794;21.590;2022-12-07T09:40:16;10.20;;;8.70;;
51525;SDS011;37611;51.794;21.590;2022-12-07T09:44:23;54.50;;;49.50;;
51525;SDS011;37611;51.794;21.590;2022-12-07T09:48:31;16.60;;;15.10;;
51525;SDS011;37611;51.794;21.590;2022-12-07T09:52:35;23.00;;;18.40;;
51525;SDS011;37611;51.794;21.590;2022-12-07T09:56:37;14.70;;;11.80;;
51525;SDS011;37611;51.794;21.590;2022-12-07T10:00:39;18.70;;;16.70;;
51525;SDS011;37611;51.794;21.590;2022-12-07T10:04:41;15.00;;;13.40;;
51525;SDS011;37611;51.794;21.590;2022-12-07T10:08:46;23.30;;;20.80;;
51525;SDS011;37611;51.794;21.590;2022-12-07T10:16:59;12.40;;;10.80;;
51525;SDS011;37611;51.794;21.590;2022-12-07T10:25:18;32.00;;;23.50;;
51525;SDS011;37611;51.794;21.590;2022-12-07T10:29:28;44.00;;;38.50;;
51525;SDS011;37611;51.794;21.590;2022-12-07T10:33:36;28.70;;;24.50;;
51525;SDS011;37611;51.794;21.590;2022-12-07T10:37:40;18.60;;;15.80;;
51525;SDS011;37611;51.794;21.590;2022-12-07T10:41:59;16.80;;;14.70;;
51525;SDS011;37611;51.794;21.590;2022-12-07T10:46:22;24.20;;;18.70;;
51525;SDS011;37611;51.794;21.590;2022-12-07T10:55:11;14.80;;;13.20;;
51525;SDS011;37611;51.794;21.590;2022-12-07T10:59:37;20.30;;;17.60;;
51525;SDS011;37611;51.794;21.590;2022-12-07T11:08:26;14.70;;;12.00;;
51525;SDS011;37611;51.794;21.590;2022-12-07T11:21:07;24.30;;;18.20;;
51525;SDS011;37611;51.794;21.590;2022-12-07T11:25:29;13.50;;;11.10;;
51525;SDS011;37611;51.794;21.590;2022-12-07T11:38:44;14.20;;;11.90;;
51525;SDS011;37611;51.794;21.590;2022-12-07T11:42:52;19.00;;;13.80;;
51525;SDS011;37611;51.794;21.590;2022-12-07T11:47:07;17.40;;;13.90;;
51525;SDS011;37611;51.794;21.590;2022-12-07T11:51:13;16.50;;;14.80;;
51525;SDS011;37611;51.794;21.590;2022-12-07T11:55:27;13.50;;;10.70;;
51525;SDS011;37611;51.794;21.590;2022-12-07T11:59:31;10.50;;;9.00;;
51525;SDS011;37611;51.794;21.590;2022-12-07T12:03:42;16.80;;;15.00;;
51525;SDS011;37611;51.794;21.590;2022-12-07T12:16:31;12.10;;;9.10;;
51525;SDS011;37611;51.794;21.590;2022-12-07T12:21:17;12.30;;;10.20;;
51525;SDS011;37611;51.794;21.590;2022-12-07T12:25:42;12.60;;;10.00;;
51525;SDS011;37611;51.794;21.590;2022-12-07T12:29:50;8.40;;;7.00;;
51525;SDS011;37611;51.794;21.590;2022-12-07T12:33:59;16.70;;;12.10;;
51525;SDS011;37611;51.794;21.590;2022-12-07T12:42:51;12.30;;;9.50;;
51525;SDS011;37611;51.794;21.590;2022-12-07T12:46:55;12.70;;;10.20;;
51525;SDS011;37611;51.794;21.590;2022-12-07T13:03:55;15.60;;;13.70;;
51525;SDS011;37611;51.794;21.590;2022-12-07T13:12:36;16.90;;;12.10;;
51525;SDS011;37611;51.794;21.590;2022-12-07T13:16:38;11.90;;;9.10;;
51525;SDS011;37611;51.794;21.590;2022-12-07T13:25:38;11.90;;;9.50;;
51525;SDS011;37611;51.794;21.590;2022-12-07T13:29:19;12.50;;;10.00;;
51525;SDS011;37611;51.794;21.590;2022-12-07T13:33:22;13.10;;;11.00;;
51525;SDS011;37611;51.794;21.590;2022-12-07T13:37:26;15.50;;;11.40;;
51525;SDS011;37611;51.794;21.590;2022-12-07T13:41:30;9.70;;;7.80;;
51525;SDS011;37611;51.794;21.590;2022-12-07T13:45:32;14.00;;;11.30;;
51525;SDS011;37611;51.794;21.590;2022-12-07T13:49:51;11.40;;;9.80;;
51525;SDS011;37611;51.794;21.590;2022-12-07T13:53:57;11.60;;;9.10;;
51525;SDS011;37611;51.794;21.590;2022-12-07T13:58:02;11.90;;;9.50;;
51525;SDS011;37611;51.794;21.590;2022-12-07T14:02:17;17.00;;;12.00;;
51525;SDS011;37611;51.794;21.590;2022-12-07T14:06:24;11.80;;;10.30;;
51525;SDS011;37611;51.794;21.590;2022-12-07T14:10:35;13.70;;;10.50;;
51525;SDS011;37611;51.794;21.590;2022-12-07T14:14:39;15.10;;;11.90;;
51525;SDS011;37611;51.794;21.590;2022-12-07T14:18:49;15.50;;;11.70;;
51525;SDS011;37611;51.794;21.590;2022-12-07T14:22:54;18.40;;;12.10;;
51525;SDS011;37611;51.794;21.590;2022-12-07T14:26:57;13.60;;;11.40;;
51525;SDS011;37611;51.794;21.590;2022-12-07T14:30:59;15.60;;;13.40;;
51525;SDS011;37611;51.794;21.590;2022-12-07T14:35:07;11.90;;;10.40;;
51525;SDS011;37611;51.794;21.590;2022-12-07T14:39:12;13.00;;;11.70;;
51525;SDS011;37611;51.794;21.590;2022-12-07T14:43:15;10.70;;;9.50;;
51525;SDS011;37611;51.794;21.590;2022-12-07T14:47:18;11.90;;;10.60;;
51525;SDS011;37611;51.794;21.590;2022-12-07T14:51:20;12.90;;;11.30;;
51525;SDS011;37611;51.794;21.590;2022-12-07T14:55:26;12.80;;;10.80;;
51525;SDS011;37611;51.794;21.590;2022-12-07T14:59:30;15.40;;;13.30;;
51525;SDS011;37611;51.794;21.590;2022-12-07T15:03:32;13.20;;;11.80;;
51525;SDS011;37611;51.794;21.590;2022-12-07T15:07:36;15.80;;;13.00;;
51525;SDS011;37611;51.794;21.590;2022-12-07T15:11:38;18.20;;;14.80;;
51525;SDS011;37611;51.794;21.590;2022-12-07T15:15:39;13.60;;;10.90;;
51525;SDS011;37611;51.794;21.590;2022-12-07T15:19:41;13.70;;;11.80;;
51525;SDS011;37611;51.794;21.590;2022-12-07T15:23:43;12.60;;;10.80;;
51525;SDS011;37611;51.794;21.590;2022-12-07T15:27:47;17.60;;;15.10;;
51525;SDS011;37611;51.794;21.590;2022-12-07T15:31:50;25.80;;;18.10;;
51525;SDS011;37611;51.794;21.590;2022-12-07T15:35:52;21.40;;;16.80;;
51525;SDS011;37611;51.794;21.590;2022-12-07T15:39:54;22.70;;;18.50;;
51525;SDS011;37611;51.794;21.590;2022-12-07T15:43:56;19.40;;;14.80;;
51525;SDS011;37611;51.794;21.590;2022-12-07T15:48:16;19.30;;;15.40;;
51525;SDS011;37611;51.794;21.590;2022-12-07T15:52:18;19.60;;;15.50;;
51525;SDS011;37611;51.794;21.590;2022-12-07T15:56:20;17.20;;;14.60;;
51525;SDS011;37611;51.794;21.590;2022-12-07T16:00:22;24.70;;;17.50;;
51525;SDS011;37611;51.794;21.590;2022-12-07T16:04:26;28.10;;;19.70;;
51525;SDS011;37611;51.794;21.590;2022-12-07T16:08:29;28.70;;;21.40;;
51525;SDS011;37611;51.794;21.590;2022-12-07T16:12:31;25.30;;;19.50;;
51525;SDS011;37611;51.794;21.590;2022-12-07T16:16:32;21.80;;;18.40;;
51525;SDS011;37611;51.794;21.590;2022-12-07T16:20:34;22.50;;;18.30;;
51525;SDS011;37611;51.794;21.590;2022-12-07T16:24:36;23.00;;;17.10;;
51525;SDS011;37611;51.794;21.590;2022-12-07T16:28:38;22.30;;;18.40;;
51525;SDS011;37611;51.794;21.590;2022-12-07T16:32:40;27.10;;;22.10;;
51525;SDS011;37611;51.794;21.590;2022-12-07T16:36:42;23.60;;;18.70;;
51525;SDS011;37611;51.794;21.590;2022-12-07T16:40:44;31.80;;;23.80;;
51525;SDS011;37611;51.794;21.590;2022-12-07T16:44:48;27.60;;;20.70;;
51525;SDS011;37611;51.794;21.590;2022-12-07T16:48:49;21.80;;;16.80;;
51525;SDS011;37611;51.794;21.590;2022-12-07T16:52:51;24.90;;;19.40;;
51525;SDS011;37611;51.794;21.590;2022-12-07T16:56:53;23.70;;;18.10;;
51525;SDS011;37611;51.794;21.590;2022-12-07T17:00:55;32.50;;;23.70;;
51525;SDS011;37611;51.794;21.590;2022-12-07T17:04:57;28.30;;;22.40;;
51525;SDS011;37611;51.794;21.590;2022-12-07T17:08:59;33.20;;;25.30;;
51525;SDS011;37611;51.794;21.590;2022-12-07T17:13:02;28.70;;;22.00;;
51525;SDS011;37611;51.794;21.590;2022-12-07T17:17:25;45.40;;;29.80;;
51525;SDS011;37611;51.794;21.590;2022-12-07T17:21:26;33.90;;;22.90;;
51525;SDS011;37611;51.794;21.590;2022-12-07T17:25:28;32.00;;;22.10;;
51525;SDS011;37611;51.794;21.590;2022-12-07T17:29:30;29.20;;;20.40;;
51525;SDS011;37611;51.794;21.590;2022-12-07T17:33:32;26.60;;;18.70;;
51525;SDS011;37611;51.794;21.590;2022-12-07T17:37:34;26.00;;;18.70;;
51525;SDS011;37611;51.794;21.590;2022-12-07T17:41:36;29.00;;;20.30;;
51525;SDS011;37611;51.794;21.590;2022-12-07T17:45:58;29.30;;;20.50;;
51525;SDS011;37611;51.794;21.590;2022-12-07T17:49:59;22.30;;;17.10;;
51525;SDS011;37611;51.794;21.590;2022-12-07T17:54:01;22.90;;;16.50;;
51525;SDS011;37611;51.794;21.590;2022-12-07T17:58:03;22.10;;;16.90;;
51525;SDS011;37611;51.794;21.590;2022-12-07T18:02:05;23.20;;;17.50;;
51525;SDS011;37611;51.794;21.590;2022-12-07T18:06:07;23.80;;;16.10;;
51525;SDS011;37611;51.794;21.590;2022-12-07T18:10:09;23.30;;;16.00;;
51525;SDS011;37611;51.794;21.590;2022-12-07T18:14:12;19.80;;;15.80;;
51525;SDS011;37611;51.794;21.590;2022-12-07T18:18:14;19.10;;;15.50;;
51525;SDS011;37611;51.794;21.590;2022-12-07T18:22:16;19.70;;;13.70;;
51525;SDS011;37611;51.794;21.590;2022-12-07T18:26:17;21.10;;;14.50;;
51525;SDS011;37611;51.794;21.590;2022-12-07T18:30:21;17.10;;;12.70;;
51525;SDS011;37611;51.794;21.590;2022-12-07T18:34:23;19.40;;;14.10;;
51525;SDS011;37611;51.794;21.590;2022-12-07T18:38:27;16.30;;;12.80;;
51525;SDS011;37611;51.794;21.590;2022-12-07T18:42:28;19.50;;;13.40;;
51525;SDS011;37611;51.794;21.590;2022-12-07T18:46:31;23.30;;;17.20;;
51525;SDS011;37611;51.794;21.590;2022-12-07T18:50:33;18.70;;;14.70;;
51525;SDS011;37611;51.794;21.590;2022-12-07T18:54:37;24.50;;;17.80;;
51525;SDS011;37611;51.794;21.590;2022-12-07T18:58:39;20.90;;;16.60;;
51525;SDS011;37611;51.794;21.590;2022-12-07T19:03:02;20.60;;;15.20;;
51525;SDS011;37611;51.794;21.590;2022-12-07T19:07:04;20.30;;;14.20;;
51525;SDS011;37611;51.794;21.590;2022-12-07T19:11:06;22.00;;;16.70;;
51525;SDS011;37611;51.794;21.590;2022-12-07T19:15:27;19.90;;;14.60;;
51525;SDS011;37611;51.794;21.590;2022-12-07T19:19:30;21.00;;;14.90;;
51525;SDS011;37611;51.794;21.590;2022-12-07T19:23:34;15.60;;;11.80;;
51525;SDS011;37611;51.794;21.590;2022-12-07T19:27:36;15.30;;;12.40;;
51525;SDS011;37611;51.794;21.590;2022-12-07T19:31:38;18.10;;;11.60;;
51525;SDS011;37611;51.794;21.590;2022-12-07T19:35:40;14.50;;;10.00;;
51525;SDS011;37611;51.794;21.590;2022-12-07T19:39:42;10.60;;;9.10;;
51525;SDS011;37611;51.794;21.590;2022-12-07T19:43:44;11.20;;;8.70;;
51525;SDS011;37611;51.794;21.590;2022-12-07T19:47:46;11.30;;;8.50;;
51525;SDS011;37611;51.794;21.590;2022-12-07T19:51:48;11.30;;;7.90;;
51525;SDS011;37611;51.794;21.590;2022-12-07T19:55:59;9.70;;;7.70;;
51525;SDS011;37611;51.794;21.590;2022-12-07T20:00:01;10.00;;;8.80;;
51525;SDS011;37611;51.794;21.590;2022-12-07T20:04:04;11.40;;;8.30;;
51525;SDS011;37611;51.794;21.590;2022-12-07T20:08:08;11.30;;;9.10;;
51525;SDS011;37611;51.794;21.590;2022-12-07T20:12:10;11.00;;;8.60;;
51525;SDS011;37611;51.794;21.590;2022-12-07T20:16:30;9.80;;;7.60;;
51525;SDS011;37611;51.794;21.590;2022-12-07T20:20:32;11.80;;;8.50;;
51525;SDS011;37611;51.794;21.590;2022-12-07T20:24:34;10.80;;;8.80;;
51525;SDS011;37611;51.794;21.590;2022-12-07T20:28:36;12.60;;;11.40;;
51525;SDS011;37611;51.794;21.590;2022-12-07T20:32:39;19.50;;;17.40;;
51525;SDS011;37611;51.794;21.590;2022-12-07T20:36:40;13.50;;;11.10;;
51525;SDS011;37611;51.794;21.590;2022-12-07T20:40:46;16.10;;;13.10;;
51525;SDS011;37611;51.794;21.590;2022-12-07T20:44:50;11.70;;;9.50;;
51525;SDS011;37611;51.794;21.590;2022-12-07T20:48:51;13.80;;;10.30;;
51525;SDS011;37611;51.794;21.590;2022-12-07T20:52:54;11.60;;;9.80;;
51525;SDS011;37611;51.794;21.590;2022-12-07T20:56:55;39.60;;;31.00;;
51525;SDS011;37611;51.794;21.590;2022-12-07T21:01:00;43.90;;;27.30;;
51525;SDS011;37611;51.794;21.590;2022-12-07T21:05:03;12.00;;;8.80;;
51525;SDS011;37611;51.794;21.590;2022-12-07T21:09:06;12.60;;;8.70;;
51525;SDS011;37611;51.794;21.590;2022-12-07T21:13:08;13.80;;;10.00;;
51525;SDS011;37611;51.794;21.590;2022-12-07T21:17:12;21.40;;;17.00;;
51525;SDS011;37611;51.794;21.590;2022-12-07T21:21:14;14.30;;;10.00;;
51525;SDS011;37611;51.794;21.590;2022-12-07T21:25:19;16.20;;;11.70;;
51525;SDS011;37611;51.794;21.590;2022-12-07T21:29:21;13.40;;;9.00;;
51525;SDS011;37611;51.794;21.590;2022-12-07T21:33:23;13.00;;;7.80;;
51525;SDS011;37611;51.794;21.590;2022-12-07T21:37:25;10.90;;;7.60;;
51525;SDS011;37611;51.794;21.590;2022-12-07T21:41:28;12.00;;;9.20;;
51525;SDS011;37611;51.794;21.590;2022-12-07T21:45:32;14.90;;;9.90;;
51525;SDS011;37611;51.794;21.590;2022-12-07T21:49:34;15.10;;;9.70;;
51525;SDS011;37611;51.794;21.590;2022-12-07T21:53:37;14.50;;;10.00;;
51525;SDS011;37611;51.794;21.590;2022-12-07T21:57:40;14.00;;;8.50;;
51525;SDS011;37611;51.794;21.590;2022-12-07T22:01:42;13.80;;;9.40;;
51525;SDS011;37611;51.794;21.590;2022-12-07T22:05:47;17.40;;;13.60;;
51525;SDS011;37611;51.794;21.590;2022-12-07T22:09:49;13.90;;;9.90;;
51525;SDS011;37611;51.794;21.590;2022-12-07T22:13:50;13.10;;;10.30;;
51525;SDS011;37611;51.794;21.590;2022-12-07T22:18:11;18.00;;;11.50;;
51525;SDS011;37611;51.794;21.590;2022-12-07T22:22:13;13.90;;;10.80;;
51525;SDS011;37611;51.794;21.590;2022-12-07T22:26:16;13.80;;;10.20;;
51525;SDS011;37611;51.794;21.590;2022-12-07T22:30:18;13.30;;;9.40;;
51525;SDS011;37611;51.794;21.590;2022-12-07T22:34:20;13.20;;;10.10;;
51525;SDS011;37611;51.794;21.590;2022-12-07T22:38:22;14.90;;;10.30;;
51525;SDS011;37611;51.794;21.590;2022-12-07T22:42:24;15.80;;;11.20;;
51525;SDS011;37611;51.794;21.590;2022-12-07T22:46:26;15.80;;;11.70;;
51525;SDS011;37611;51.794;21.590;2022-12-07T22:50:28;16.10;;;10.30;;
51525;SDS011;37611;51.794;21.590;2022-12-07T22:54:30;15.30;;;9.20;;
51525;SDS011;37611;51.794;21.590;2022-12-07T22:58:32;15.20;;;10.10;;
51525;SDS011;37611;51.794;21.590;2022-12-07T23:02:34;15.60;;;10.60;;
51525;SDS011;37611;51.794;21.590;2022-12-07T23:06:35;19.10;;;11.10;;
51525;SDS011;37611;51.794;21.590;2022-12-07T23:10:42;19.90;;;11.60;;
51525;SDS011;37611;51.794;21.590;2022-12-07T23:14:48;17.60;;;12.80;;
51525;SDS011;37611;51.794;21.590;2022-12-07T23:18:54;19.00;;;11.50;;
51525;SDS011;37611;51.794;21.590;2022-12-07T23:22:55;15.70;;;10.30;;
51525;SDS011;37611;51.794;21.590;2022-12-07T23:26:57;16.30;;;10.50;;
51525;SDS011;37611;51.794;21.590;2022-12-07T23:31:12;19.60;;;11.80;;
51525;SDS011;37611;51.794;21.590;2022-12-07T23:35:22;15.10;;;9.70;;
51525;SDS011;37611;51.794;21.590;2022-12-07T23:39:24;14.30;;;10.50;;
51525;SDS011;37611;51.794;21.590;2022-12-07T23:43:27;17.50;;;10.30;;
51525;SDS011;37611;51.794;21.590;2022-12-07T23:47:28;16.90;;;10.60;;
51525;SDS011;37611;51.794;21.590;2022-12-07T23:51:30;15.10;;;9.80;;
51525;SDS011;37611;51.794;21.590;2022-12-07T23:55:33;13.10;;;8.80;;
51525;SDS011;37611;51.794;21.590;2022-12-07T23:59:34;14.60;;;10.40;;
